Time;durP1;ratioP1;P1;durP2;ratioP2;P2;SDS_P1;SDS_P2;PMS_P1;PMS_P2;Temp;Humidity;BMP_temperature;BMP_pressure;BME280_temperature;BME280_humidity;BME280_pressure;Samples;Min_cycle;Max_cycle;Signal;HPM_P1;HPM_P2
2023/04/19 00:01:35;;;;;;;27.73;20.83;;;11.40;99.90;;;;;;5134673;27;20027;-69
2023/04/19 00:04:02;;;;;;;25.45;20.65;;;11.40;99.90;;;;;;5134993;27;20019;-69
2023/04/19 00:06:29;;;;;;;32.40;24.80;;;11.40;99.90;;;;;;5134345;27;20019;-70
2023/04/19 00:08:56;;;;;;;31.15;21.55;;;11.40;99.90;;;;;;5130304;27;20031;-69
2023/04/19 00:11:23;;;;;;;31.52;23.48;;;11.40;99.90;;;;;;5132783;27;20023;-70
2023/04/19 00:13:49;;;;;;;29.73;22.15;;;11.50;99.90;;;;;;5132118;27;20027;-69
2023/04/19 00:16:15;;;;;;;27.88;19.90;;;11.50;99.90;;;;;;5132586;27;20086;-69
2023/04/19 00:18:41;;;;;;;27.15;21.05;;;11.50;99.90;;;;;;5130213;27;20019;-72
2023/04/19 00:21:07;;;;;;;29.60;21.73;;;11.50;99.90;;;;;;5133859;27;20061;-71
2023/04/19 00:23:33;;;;;;;29.05;22.00;;;11.60;99.90;;;;;;5133310;27;20479;-71
2023/04/19 00:26:02;;;;;;;30.10;21.90;;;11.60;99.90;;;;;;5134460;27;20093;-71
2023/04/19 00:28:28;;;;;;;27.42;20.17;;;11.70;99.90;;;;;;5131203;27;20015;-69
2023/04/19 00:30:54;;;;;;;29.95;22.63;;;11.70;99.90;;;;;;5134498;27;20027;-69
2023/04/19 00:33:20;;;;;;;26.48;20.65;;;11.70;99.90;;;;;;5133420;27;20494;-69
2023/04/19 00:35:45;;;;;;;29.73;20.92;;;11.60;99.90;;;;;;5134076;27;20102;-70
2023/04/19 00:38:11;;;;;;;27.35;20.80;;;11.60;99.90;;;;;;5134299;27;20026;-69
2023/04/19 00:40:37;;;;;;;24.98;20.25;;;11.70;99.90;;;;;;5130573;27;20529;-70
2023/04/19 00:43:03;;;;;;;26.35;20.77;;;11.70;99.90;;;;;;5119627;27;20035;-69
2023/04/19 00:45:29;;;;;;;33.45;22.67;;;11.70;99.90;;;;;;5133880;27;20372;-70
2023/04/19 00:47:55;;;;;;;28.67;21.30;;;11.80;99.90;;;;;;5132937;27;20011;-70
2023/04/19 00:50:20;;;;;;;27.67;21.35;;;11.80;99.90;;;;;;5132477;27;20544;-70
2023/04/19 00:52:46;;;;;;;27.48;20.05;;;11.80;99.90;;;;;;5132690;27;20018;-69
2023/04/19 00:55:12;;;;;;;30.20;20.88;;;11.80;99.90;;;;;;5133853;27;20023;-69
2023/04/19 00:57:39;;;;;;;29.30;21.88;;;11.90;99.90;;;;;;5133860;27;20131;-69
2023/04/19 01:00:07;;;;;;;26.88;20.45;;;11.90;99.90;;;;;;5133001;27;20011;-70
2023/04/19 01:02:33;;;;;;;28.13;21.02;;;12.00;99.90;;;;;;5131145;27;20045;-69
2023/04/19 01:04:59;;;;;;;28.80;21.77;;;12.10;99.90;;;;;;5133767;27;20042;-69
2023/04/19 01:07:25;;;;;;;29.05;21.45;;;12.10;99.90;;;;;;5132262;27;20445;-69
2023/04/19 01:09:51;;;;;;;30.48;21.52;;;11.90;99.90;;;;;;5126558;27;20044;-69
2023/04/19 01:12:16;;;;;;;31.65;22.83;;;12.00;99.90;;;;;;5112166;28;20035;-69
2023/04/19 01:14:43;;;;;;;30.08;21.15;;;12.00;99.90;;;;;;5113181;28;20046;-70
2023/04/19 01:17:09;;;;;;;29.38;20.75;;;12.00;99.90;;;;;;5113154;28;20131;-69
2023/04/19 01:19:35;;;;;;;27.67;19.98;;;12.00;99.90;;;;;;5119852;27;20015;-69
2023/04/19 01:22:02;;;;;;;29.70;21.85;;;12.00;99.90;;;;;;5133041;27;20019;-69
2023/04/19 01:24:29;;;;;;;29.38;21.58;;;12.00;99.90;;;;;;5133360;27;20015;-70
2023/04/19 01:26:55;;;;;;;29.85;20.40;;;12.10;99.90;;;;;;5133330;27;20508;-69
2023/04/19 01:29:21;;;;;;;30.38;21.13;;;12.10;99.90;;;;;;5133733;27;20023;-69
2023/04/19 01:31:50;;;;;;;27.75;20.83;;;12.10;99.90;;;;;;5133403;27;20042;-70
2023/04/19 01:34:16;;;;;;;28.20;20.90;;;12.10;99.90;;;;;;5132545;27;20083;-70
2023/04/19 01:36:41;;;;;;;27.85;20.10;;;12.20;99.90;;;;;;5133838;27;20027;-71
2023/04/19 01:39:07;;;;;;;28.55;20.58;;;12.20;99.90;;;;;;5132599;27;20163;-69
2023/04/19 01:41:32;;;;;;;31.70;23.27;;;12.20;99.90;;;;;;5132397;27;20038;-70
2023/04/19 01:43:59;;;;;;;29.70;22.77;;;12.10;99.90;;;;;;5131391;27;20030;-70
2023/04/19 01:46:25;;;;;;;37.60;24.55;;;12.10;99.90;;;;;;5133129;27;20022;-69
2023/04/19 01:48:50;;;;;;;29.95;21.48;;;12.20;99.90;;;;;;5132858;28;20027;-70
2023/04/19 01:51:16;;;;;;;34.53;22.00;;;12.10;99.90;;;;;;5134786;27;20035;-70
2023/04/19 01:53:42;;;;;;;30.50;23.13;;;12.20;99.90;;;;;;5137278;27;20447;-69
2023/04/19 01:56:08;;;;;;;32.85;22.95;;;12.20;99.90;;;;;;5137764;27;20023;-70
2023/04/19 01:58:33;;;;;;;33.75;22.58;;;12.20;99.90;;;;;;5137206;27;20043;-69
2023/04/19 02:00:59;;;;;;;31.65;21.75;;;12.20;99.90;;;;;;5135792;27;20471;-70
2023/04/19 02:03:25;;;;;;;30.52;21.80;;;12.20;99.90;;;;;;5137505;27;20080;-70
2023/04/19 02:05:50;;;;;;;31.50;21.35;;;12.20;99.90;;;;;;5137580;27;20046;-69
2023/04/19 02:08:16;;;;;;;28.58;21.63;;;12.20;99.90;;;;;;5136340;27;20101;-69
2023/04/19 02:10:42;;;;;;;32.92;24.65;;;12.20;99.90;;;;;;5137192;27;20088;-70
2023/04/19 02:13:08;;;;;;;32.05;24.17;;;12.20;99.90;;;;;;5137625;27;20068;-70
2023/04/19 02:15:36;;;;;;;32.35;23.35;;;12.20;99.90;;;;;;5135906;27;20110;-69
2023/04/19 02:18:05;;;;;;;31.90;23.92;;;12.30;99.90;;;;;;5158088;27;20521;-69
2023/04/19 02:20:31;;;;;;;33.90;23.35;;;12.20;99.90;;;;;;5142129;27;20391;-70
2023/04/19 02:22:57;;;;;;;33.50;24.25;;;12.10;99.90;;;;;;5137238;27;20156;-71
2023/04/19 02:25:22;;;;;;;34.60;25.52;;;12.20;99.90;;;;;;5135817;27;20102;-69
2023/04/19 02:27:48;;;;;;;32.67;23.55;;;12.20;99.90;;;;;;5137337;27;20145;-69
2023/04/19 02:30:14;;;;;;;32.50;23.38;;;12.20;99.90;;;;;;5136409;27;20027;-69
2023/04/19 02:32:40;;;;;;;30.83;23.40;;;12.20;99.90;;;;;;5150119;27;20090;-70
2023/04/19 02:35:06;;;;;;;30.38;22.80;;;12.20;99.90;;;;;;5139560;27;20038;-69
2023/04/19 02:37:31;;;;;;;31.05;22.50;;;12.20;99.90;;;;;;5137099;27;20049;-70
2023/04/19 02:39:57;;;;;;;32.08;22.60;;;12.10;99.90;;;;;;5136761;27;20471;-70
2023/04/19 02:42:22;;;;;;;30.13;22.92;;;12.10;99.90;;;;;;5136911;27;20023;-70
2023/04/19 02:44:48;;;;;;;30.73;22.90;;;12.10;99.90;;;;;;5145179;27;20110;-70
2023/04/19 02:47:14;;;;;;;35.42;23.42;;;12.30;99.90;;;;;;5157324;27;20026;-70
2023/04/19 02:49:41;;;;;;;33.55;23.98;;;12.20;99.90;;;;;;5155763;27;20026;-69
2023/04/19 02:52:07;;;;;;;30.08;23.77;;;12.30;99.90;;;;;;5156409;27;20029;-70
2023/04/19 02:54:33;;;;;;;35.88;24.42;;;12.20;99.90;;;;;;5157105;27;20428;-69
2023/04/19 02:56:59;;;;;;;34.45;22.42;;;12.10;99.90;;;;;;5139209;27;20080;-70
2023/04/19 02:59:25;;;;;;;34.38;24.45;;;12.20;99.90;;;;;;5136549;27;20076;-70
2023/04/19 03:01:51;;;;;;;34.50;23.67;;;12.20;99.90;;;;;;5146680;27;20023;-69
2023/04/19 03:04:17;;;;;;;31.10;22.35;;;12.20;99.90;;;;;;5155195;27;20026;-70
2023/04/19 03:06:43;;;;;;;34.03;22.38;;;12.30;99.90;;;;;;5156115;27;20462;-69
2023/04/19 03:09:09;;;;;;;29.45;23.23;;;12.30;99.90;;;;;;5154917;27;20026;-70
2023/04/19 03:11:35;;;;;;;30.63;21.67;;;12.30;99.90;;;;;;5156891;27;20073;-70
2023/04/19 03:14:01;;;;;;;31.20;23.45;;;12.20;99.90;;;;;;5156737;27;20029;-69
2023/04/19 03:16:29;;;;;;;32.75;22.80;;;12.20;99.90;;;;;;5145370;27;20027;-69
2023/04/19 03:18:54;;;;;;;33.92;23.27;;;12.10;99.90;;;;;;5135113;27;20064;-69
2023/04/19 03:21:20;;;;;;;31.23;23.33;;;12.10;99.90;;;;;;5135466;27;20115;-70
2023/04/19 03:23:46;;;;;;;31.48;23.02;;;12.00;99.90;;;;;;5134490;27;20015;-70
2023/04/19 03:26:11;;;;;;;29.48;21.80;;;12.10;99.90;;;;;;5135663;27;20030;-69
2023/04/19 03:28:37;;;;;;;30.65;22.58;;;12.10;99.90;;;;;;5134844;27;20055;-70
2023/04/19 03:31:02;;;;;;;30.83;21.73;;;12.00;99.90;;;;;;5148409;27;20031;-70
2023/04/19 03:33:28;;;;;;;31.23;21.33;;;12.00;99.90;;;;;;5156137;27;20379;-69
2023/04/19 03:35:54;;;;;;;31.02;21.95;;;12.00;99.90;;;;;;5149651;27;20072;-69
2023/04/19 03:38:19;;;;;;;30.20;22.67;;;11.90;99.90;;;;;;5135801;27;20030;-70
2023/04/19 03:40:45;;;;;;;34.53;23.58;;;11.80;99.90;;;;;;5135730;27;20028;-69
2023/04/19 03:43:11;;;;;;;32.75;23.10;;;11.70;99.90;;;;;;5133591;27;20023;-70
2023/04/19 03:45:37;;;;;;;32.67;23.60;;;11.70;99.90;;;;;;5136234;27;20830;-70
2023/04/19 03:48:02;;;;;;;34.83;23.80;;;11.60;99.90;;;;;;5155736;27;20035;-69
2023/04/19 03:50:28;;;;;;;35.60;23.58;;;11.60;99.90;;;;;;5153278;27;20038;-69
2023/04/19 03:52:54;;;;;;;36.05;24.65;;;11.60;99.90;;;;;;5155409;27;20050;-70
2023/04/19 03:55:19;;;;;;;33.50;24.23;;;11.50;99.90;;;;;;5155869;27;20106;-69
2023/04/19 03:57:45;;;;;;;37.13;24.38;;;11.50;99.90;;;;;;5154722;27;20094;-69
2023/04/19 04:00:11;;;;;;;35.88;25.98;;;11.40;99.90;;;;;;5155854;27;20493;-69
2023/04/19 04:02:38;;;;;;;34.45;24.20;;;11.50;99.90;;;;;;5154693;27;20018;-69
2023/04/19 04:05:05;;;;;;;31.85;23.92;;;11.50;99.90;;;;;;5134832;27;20027;-70
2023/04/19 04:07:30;;;;;;;33.45;24.52;;;11.60;99.90;;;;;;5122974;27;20488;-69
2023/04/19 04:09:56;;;;;;;35.22;24.88;;;11.60;99.90;;;;;;5134871;27;20023;-70
2023/04/19 04:12:21;;;;;;;37.03;23.92;;;11.60;99.90;;;;;;5134400;27;20499;-70
2023/04/19 04:14:47;;;;;;;31.75;22.50;;;11.70;99.90;;;;;;5132923;27;20023;-69
2023/04/19 04:17:13;;;;;;;33.03;23.23;;;11.70;99.90;;;;;;5134504;27;20379;-70
2023/04/19 04:19:38;;;;;;;37.58;25.02;;;11.80;99.90;;;;;;5135173;27;20046;-69
2023/04/19 04:22:05;;;;;;;33.50;22.75;;;11.80;99.90;;;;;;5135062;27;20023;-70
2023/04/19 04:24:37;;;;;;;33.25;24.15;;;11.90;99.90;;;;;;5134770;27;20046;-69
2023/04/19 04:27:03;;;;;;;34.97;22.40;;;11.80;99.90;;;;;;5134505;27;20106;-69
2023/04/19 04:29:28;;;;;;;34.45;23.80;;;11.80;99.90;;;;;;5134999;27;20132;-70
2023/04/19 04:31:55;;;;;;;33.17;21.70;;;11.80;99.90;;;;;;5134729;27;20434;-69
2023/04/19 04:34:21;;;;;;;30.45;21.33;;;11.80;99.90;;;;;;5134789;27;20027;-69
2023/04/19 04:36:49;;;;;;;30.60;22.10;;;11.80;99.90;;;;;;5134798;27;20061;-69
2023/04/19 04:39:15;;;;;;;28.88;21.35;;;11.90;99.90;;;;;;5134457;27;20019;-69
2023/04/19 04:41:41;;;;;;;29.20;20.60;;;11.80;99.90;;;;;;5134821;27;20433;-70
2023/04/19 04:44:07;;;;;;;28.02;19.48;;;11.80;99.90;;;;;;5133753;27;20076;-70
2023/04/19 04:46:34;;;;;;;28.10;20.08;;;11.70;99.90;;;;;;5128205;27;20388;-69
2023/04/19 04:48:59;;;;;;;28.27;19.38;;;11.70;99.90;;;;;;5132451;27;20057;-69
2023/04/19 04:51:26;;;;;;;26.00;20.42;;;11.70;99.90;;;;;;5133609;27;20070;-69
2023/04/19 04:53:51;;;;;;;26.20;19.13;;;11.70;99.90;;;;;;5113476;28;20028;-70
2023/04/19 04:56:17;;;;;;;24.40;18.08;;;11.70;99.90;;;;;;5140157;27;20088;-70
2023/04/19 04:58:43;;;;;;;29.25;19.48;;;11.80;99.90;;;;;;5133672;27;20383;-69
2023/04/19 05:01:08;;;;;;;28.02;17.95;;;11.80;99.90;;;;;;5134023;27;20050;-70
2023/04/19 05:03:34;;;;;;;23.73;17.13;;;11.90;99.90;;;;;;5133163;27;20023;-69
2023/04/19 05:06:00;;;;;;;23.38;17.08;;;11.90;99.90;;;;;;5132792;27;20475;-69
2023/04/19 05:08:26;;;;;;;24.58;16.83;;;11.90;99.90;;;;;;5134115;27;20034;-69
2023/04/19 05:10:51;;;;;;;25.60;16.58;;;11.90;99.90;;;;;;5134184;27;20035;-68
2023/04/19 05:13:17;;;;;;;23.35;17.63;;;11.90;99.90;;;;;;5154318;27;20171;-69
2023/04/19 05:15:43;;;;;;;26.05;16.70;;;11.90;99.90;;;;;;5153872;27;20352;-70
2023/04/19 05:18:08;;;;;;;21.50;16.30;;;11.90;99.90;;;;;;5154210;27;20027;-69
2023/04/19 05:20:34;;;;;;;21.92;15.38;;;12.00;99.90;;;;;;5139140;27;20046;-69
2023/04/19 05:23:02;;;;;;;21.50;14.50;;;11.90;99.90;;;;;;5133150;27;20080;-69
2023/04/19 05:25:28;;;;;;;21.42;14.85;;;11.90;99.90;;;;;;5133135;27;20019;-69
2023/04/19 05:27:55;;;;;;;20.63;15.63;;;12.00;99.90;;;;;;5132458;27;20027;-70
2023/04/19 05:30:20;;;;;;;23.35;16.50;;;12.10;99.90;;;;;;5132346;27;20250;-71
2023/04/19 05:32:46;;;;;;;22.55;15.55;;;12.10;99.90;;;;;;5136527;27;20379;-73
2023/04/19 05:35:12;;;;;;;19.27;15.27;;;12.20;99.90;;;;;;5132654;27;20035;-73
2023/04/19 05:37:38;;;;;;;20.85;15.32;;;12.20;99.90;;;;;;5133267;27;20034;-73
2023/04/19 05:40:05;;;;;;;19.90;14.15;;;12.20;99.90;;;;;;5132848;27;20110;-74
2023/04/19 05:42:31;;;;;;;27.80;14.75;;;12.10;99.90;;;;;;5131717;27;20046;-73
2023/04/19 05:44:56;;;;;;;20.92;15.70;;;12.20;99.90;;;;;;5124274;27;20027;-73
2023/04/19 05:47:22;;;;;;;20.40;15.18;;;12.10;99.90;;;;;;5112669;28;20234;-73
2023/04/19 05:49:48;;;;;;;24.58;15.68;;;12.20;99.90;;;;;;5113121;28;20031;-73
2023/04/19 05:52:13;;;;;;;18.13;13.43;;;12.20;99.90;;;;;;5112974;28;20066;-73
2023/04/19 05:54:39;;;;;;;21.23;14.18;;;12.30;99.90;;;;;;5112633;28;20031;-73
2023/04/19 05:57:05;;;;;;;16.98;12.40;;;12.40;99.90;;;;;;5112030;28;20476;-71
2023/04/19 05:59:31;;;;;;;14.27;11.38;;;12.40;99.90;;;;;;5112848;28;20384;-73
2023/04/19 06:01:57;;;;;;;15.77;11.02;;;12.30;99.90;;;;;;5125537;28;20041;-73
2023/04/19 06:04:26;;;;;;;15.90;11.88;;;12.30;99.90;;;;;;5144994;27;20148;-71
2023/04/19 06:06:52;;;;;;;16.13;11.27;;;12.20;99.90;;;;;;5153773;27;20482;-72
2023/04/19 06:09:17;;;;;;;12.77;9.77;;;12.30;99.90;;;;;;5142221;27;20023;-72
2023/04/19 06:11:44;;;;;;;14.30;11.15;;;12.20;99.90;;;;;;5131629;27;20038;-72
2023/04/19 06:14:12;;;;;;;16.63;9.50;;;12.10;99.90;;;;;;5132204;27;20019;-71
2023/04/19 06:16:38;;;;;;;11.90;9.02;;;12.00;99.90;;;;;;5132566;27;20502;-72
2023/04/19 06:19:04;;;;;;;13.73;9.38;;;11.90;99.90;;;;;;5129915;27;20018;-72
2023/04/19 06:21:30;;;;;;;12.73;9.23;;;11.90;99.90;;;;;;5130700;27;20023;-70
2023/04/19 06:23:56;;;;;;;12.82;8.40;;;11.90;99.90;;;;;;5133353;27;20023;-70
2023/04/19 06:26:21;;;;;;;12.95;8.25;;;11.90;99.90;;;;;;5133191;27;20068;-71
2023/04/19 06:28:47;;;;;;;10.00;8.05;;;11.80;99.90;;;;;;5133357;27;20440;-71
2023/04/19 06:31:13;;;;;;;12.32;8.65;;;11.90;99.90;;;;;;5132962;27;20464;-71
2023/04/19 06:33:40;;;;;;;11.10;8.75;;;11.80;99.90;;;;;;5133098;27;20027;-71
2023/04/19 06:36:06;;;;;;;10.57;8.60;;;11.90;99.90;;;;;;5132630;27;20072;-71
2023/04/19 06:38:31;;;;;;;11.57;8.73;;;12.00;99.90;;;;;;5149739;27;20026;-71
2023/04/19 06:40:57;;;;;;;9.65;7.85;;;11.80;99.90;;;;;;5157116;27;20037;-71
2023/04/19 06:43:23;;;;;;;10.73;7.97;;;11.90;99.90;;;;;;5156318;27;20031;-69
2023/04/19 06:45:56;;;;;;;13.10;9.10;;;12.00;99.90;;;;;;5135422;27;20109;-70
2023/04/19 06:48:21;;;;;;;9.75;7.97;;;12.00;99.90;;;;;;5122302;27;20058;-70
2023/04/19 06:50:47;;;;;;;11.85;8.30;;;11.90;99.90;;;;;;5129978;27;20062;-69
2023/04/19 06:53:12;;;;;;;12.82;7.53;;;12.00;99.90;;;;;;5135913;27;20027;-70
2023/04/19 06:55:38;;;;;;;11.10;7.65;;;12.10;99.90;;;;;;5153709;27;20130;-70
2023/04/19 06:58:06;;;;;;;14.02;8.43;;;12.10;99.90;;;;;;5156468;27;20079;-71
2023/04/19 07:00:32;;;;;;;10.57;7.72;;;12.10;99.90;;;;;;5148806;27;20542;-72
2023/04/19 07:02:59;;;;;;;10.45;7.90;;;12.00;99.90;;;;;;5135706;27;20152;-70
2023/04/19 07:05:24;;;;;;;9.85;7.43;;;12.10;99.90;;;;;;5136022;27;20018;-70
2023/04/19 07:07:50;;;;;;;9.60;7.57;;;12.10;99.90;;;;;;5135844;27;20031;-72
2023/04/19 07:10:16;;;;;;;10.98;7.90;;;12.20;99.90;;;;;;5131434;27;20036;-71
2023/04/19 07:12:41;;;;;;;10.27;7.43;;;12.30;99.90;;;;;;5136239;27;20031;-71
2023/04/19 07:15:08;;;;;;;9.85;7.72;;;12.40;99.90;;;;;;5136317;27;20507;-71
2023/04/19 07:17:35;;;;;;;10.57;7.80;;;12.40;99.90;;;;;;5134418;27;20031;-71
2023/04/19 07:20:02;;;;;;;10.70;7.50;;;12.40;99.90;;;;;;5142463;27;20046;-71
2023/04/19 07:22:28;;;;;;;10.65;7.85;;;12.50;99.90;;;;;;5136362;27;20031;-71
2023/04/19 07:24:54;;;;;;;10.85;8.07;;;12.50;99.90;;;;;;5124671;27;20042;-71
2023/04/19 07:27:19;;;;;;;11.27;8.02;;;12.50;99.90;;;;;;5117493;27;20054;-72
2023/04/19 07:29:45;;;;;;;10.00;7.88;;;12.70;99.90;;;;;;5126869;27;20380;-72
2023/04/19 07:32:12;;;;;;;11.00;8.50;;;12.70;99.90;;;;;;5133877;27;20031;-72
2023/04/19 07:34:40;;;;;;;9.80;8.55;;;12.70;99.90;;;;;;5134716;27;20046;-71
2023/04/19 07:37:06;;;;;;;13.77;7.88;;;12.80;99.90;;;;;;5134617;27;20106;-71
2023/04/19 07:39:32;;;;;;;12.88;8.05;;;12.90;99.90;;;;;;5134305;27;20086;-72
2023/04/19 07:41:59;;;;;;;10.65;8.07;;;12.90;99.90;;;;;;5135344;27;20525;-72
2023/04/19 07:44:25;;;;;;;13.45;7.50;;;13.00;99.90;;;;;;5133268;27;20019;-71
2023/04/19 07:46:51;;;;;;;9.43;8.25;;;13.10;99.90;;;;;;5135260;27;20543;-71
2023/04/19 07:49:17;;;;;;;10.30;7.85;;;13.40;99.90;;;;;;5133300;27;20042;-71
2023/04/19 07:51:42;;;;;;;12.60;8.50;;;13.60;99.90;;;;;;5135172;27;20067;-71
2023/04/19 07:54:09;;;;;;;9.70;8.02;;;13.90;99.90;;;;;;5139648;27;20030;-71
2023/04/19 07:56:34;;;;;;;9.50;8.05;;;13.90;99.90;;;;;;5142227;27;20118;-72
2023/04/19 07:59:00;;;;;;;12.93;7.53;;;14.00;99.90;;;;;;5134885;27;20499;-71
2023/04/19 08:01:26;;;;;;;8.73;7.55;;;14.00;99.90;;;;;;5132687;27;20019;-71
2023/04/19 08:03:51;;;;;;;9.90;7.60;;;14.10;99.90;;;;;;5094046;27;20095;-72
2023/04/19 08:06:20;;;;;;;8.40;7.20;;;14.10;99.90;;;;;;5116779;27;20046;-71
2023/04/19 08:08:46;;;;;;;10.93;7.80;;;14.10;99.90;;;;;;5114903;27;20012;-72
2023/04/19 08:11:12;;;;;;;9.52;7.80;;;14.20;99.90;;;;;;5117213;27;20066;-72
2023/04/19 08:13:38;;;;;;;10.20;7.38;;;14.20;99.90;;;;;;5118640;27;20065;-71
2023/04/19 08:16:03;;;;;;;10.35;7.13;;;14.30;99.90;;;;;;5118102;27;20471;-71
2023/04/19 08:18:30;;;;;;;10.60;6.78;;;14.40;99.90;;;;;;5116528;27;20417;-72
2023/04/19 08:20:55;;;;;;;16.65;7.35;;;14.50;99.90;;;;;;5115039;27;20482;-71
2023/04/19 08:23:21;;;;;;;7.28;6.28;;;14.70;99.90;;;;;;5116955;27;20055;-72
2023/04/19 08:25:48;;;;;;;9.00;7.30;;;14.70;99.90;;;;;;5120971;27;20412;-72
2023/04/19 08:28:13;;;;;;;11.95;6.82;;;14.60;99.90;;;;;;5117364;27;20073;-72
2023/04/19 08:30:40;;;;;;;8.90;6.60;;;14.80;99.90;;;;;;5117271;27;20039;-72
2023/04/19 08:33:05;;;;;;;10.38;6.93;;;15.10;99.90;;;;;;5115614;27;20050;-71
2023/04/19 08:35:34;;;;;;;10.07;6.80;;;15.40;99.90;;;;;;5115949;27;20047;-72
2023/04/19 08:37:59;;;;;;;15.27;6.90;;;15.30;99.90;;;;;;5116294;27;21380;-72
2023/04/19 08:40:25;;;;;;;11.40;6.68;;;15.30;99.90;;;;;;5115268;27;20024;-72
2023/04/19 08:42:51;;;;;;;10.70;6.80;;;15.60;99.90;;;;;;5115277;27;20535;-72
2023/04/19 08:45:20;;;;;;;8.82;6.50;;;15.20;99.90;;;;;;5117983;27;20031;-72
2023/04/19 08:47:46;;;;;;;9.52;6.18;;;15.50;99.90;;;;;;5116809;27;20027;-72
2023/04/19 08:50:12;;;;;;;11.98;6.22;;;15.70;99.90;;;;;;5118173;27;20472;-72
2023/04/19 08:52:39;;;;;;;8.65;7.07;;;15.80;99.90;;;;;;5112610;27;20028;-72
2023/04/19 08:55:06;;;;;;;9.63;7.10;;;15.90;99.90;;;;;;5115508;27;20080;-72
2023/04/19 08:57:33;;;;;;;7.00;6.22;;;16.10;99.90;;;;;;5117900;27;20026;-72
2023/04/19 09:00:00;;;;;;;10.68;6.35;;;16.10;99.90;;;;;;5115223;27;20027;-72
2023/04/19 09:02:26;;;;;;;12.38;6.30;;;15.50;99.90;;;;;;5114470;27;20047;-72
2023/04/19 09:04:52;;;;;;;8.77;6.38;;;15.60;99.90;;;;;;5115251;27;20055;-72
2023/04/19 09:07:27;;;;;;;8.48;6.13;;;15.60;99.90;;;;;;5116777;27;20131;-72
2023/04/19 09:10:07;;;;;;;9.60;6.43;;;15.50;99.90;;;;;;5122173;27;20498;-72
2023/04/19 09:12:34;;;;;;;11.05;6.20;;;16.00;99.90;;;;;;5114672;27;20039;-72
2023/04/19 09:15:03;;;;;;;8.55;5.68;;;16.10;99.90;;;;;;5116214;27;20072;-72
2023/04/19 09:17:29;;;;;;;10.15;6.78;;;15.80;99.90;;;;;;5120498;27;20027;-72
2023/04/19 09:19:55;;;;;;;8.85;6.05;;;16.10;99.90;;;;;;5117315;27;20547;-72
2023/04/19 09:22:20;;;;;;;9.50;6.20;;;16.10;99.90;;;;;;5110081;27;20095;-72
2023/04/19 09:24:46;;;;;;;6.70;6.00;;;16.10;99.90;;;;;;5115226;27;20026;-72
2023/04/19 09:27:13;;;;;;;8.77;6.55;;;16.20;99.90;;;;;;5109498;27;20420;-70
2023/04/19 09:29:39;;;;;;;8.77;5.80;;;16.50;99.90;;;;;;5112878;27;20051;-72
2023/04/19 09:32:05;;;;;;;9.70;6.32;;;16.40;99.90;;;;;;5114988;27;20488;-72
2023/04/19 09:34:31;;;;;;;8.75;5.93;;;16.20;99.90;;;;;;5114257;27;20024;-72
2023/04/19 09:36:56;;;;;;;9.98;5.50;;;16.60;99.90;;;;;;5110826;28;20031;-72
2023/04/19 09:39:32;;;;;;;11.77;6.15;;;16.70;99.90;;;;;;5111005;27;20027;-72
2023/04/19 09:41:57;;;;;;;11.32;5.97;;;16.80;99.90;;;;;;5114095;27;20038;-72
2023/04/19 09:44:23;;;;;;;7.95;5.70;;;16.80;99.90;;;;;;5113741;28;20028;-72
2023/04/19 09:46:51;;;;;;;13.57;6.20;;;16.80;99.90;;;;;;5117683;27;20460;-71
2023/04/19 09:49:18;;;;;;;7.43;6.13;;;17.10;99.90;;;;;;5118211;28;20019;-72
2023/04/19 09:51:48;;;;;;;9.68;6.32;;;17.10;99.90;;;;;;5115526;28;20032;-70
2023/04/19 09:54:17;;;;;;;9.40;6.20;;;17.10;99.90;;;;;;5116185;28;20094;-71
2023/04/19 09:56:43;;;;;;;7.82;5.75;;;17.00;99.90;;;;;;5110503;28;20084;-71
2023/04/19 09:59:09;;;;;;;7.70;5.60;;;17.00;99.90;;;;;;5114897;28;20399;-71
2023/04/19 10:01:41;;;;;;;12.25;5.43;;;17.00;99.90;;;;;;5115599;28;20022;-71
2023/04/19 10:04:10;;;;;;;6.80;5.13;;;17.20;99.90;;;;;;5119506;27;20024;-72
2023/04/19 10:06:36;;;;;;;9.02;5.38;;;17.10;99.90;;;;;;5115916;28;20380;-71
2023/04/19 10:09:03;;;;;;;6.97;5.22;;;17.10;99.90;;;;;;5113268;27;20464;-72
2023/04/19 10:11:37;;;;;;;7.47;4.60;;;16.90;99.90;;;;;;5112526;27;20052;-71
2023/04/19 10:14:06;;;;;;;7.97;4.63;;;17.10;99.90;;;;;;5118109;27;20392;-71
2023/04/19 10:16:32;;;;;;;7.75;4.82;;;17.20;99.90;;;;;;5119163;27;20068;-71
2023/04/19 10:18:58;;;;;;;7.78;5.07;;;17.40;99.90;;;;;;5115553;27;20015;-71
2023/04/19 10:21:27;;;;;;;7.97;4.72;;;17.50;99.90;;;;;;5118568;27;20115;-71
2023/04/19 10:23:54;;;;;;;5.38;4.88;;;17.50;99.80;;;;;;5117956;27;20023;-72
2023/04/19 10:26:21;;;;;;;7.78;4.63;;;17.40;99.90;;;;;;5119106;27;20065;-72
2023/04/19 10:28:47;;;;;;;9.45;4.20;;;17.10;99.90;;;;;;5116691;27;20068;-71
2023/04/19 10:31:13;;;;;;;6.40;4.65;;;17.10;99.90;;;;;;5117987;27;20031;-72
2023/04/19 10:33:39;;;;;;;7.22;3.90;;;17.20;99.90;;;;;;5117496;27;20020;-72
2023/04/19 10:36:09;;;;;;;32.92;5.13;;;17.20;99.60;;;;;;5115666;27;20031;-71
2023/04/19 10:38:51;;;;;;;8.85;4.47;;;17.50;99.90;;;;;;5116712;27;20364;-71
2023/04/19 10:41:20;;;;;;;4.30;3.80;;;17.80;98.70;;;;;;5118877;27;20019;-72
2023/04/19 10:43:56;;;;;;;4.28;3.25;;;17.70;99.90;;;;;;5114751;27;20440;-72
2023/04/19 10:46:23;;;;;;;5.65;3.13;;;18.00;99.10;;;;;;5114819;27;20155;-71
2023/04/19 10:48:53;;;;;;;5.63;3.83;;;17.90;96.20;;;;;;5119240;27;20077;-71
2023/04/19 10:51:50;;;;;;;4.72;3.50;;;17.70;97.20;;;;;;5120146;27;20038;-71
2023/04/19 10:54:36;;;;;;;6.93;3.50;;;17.70;94.90;;;;;;5114735;27;20042;-71
2023/04/19 10:57:10;;;;;;;6.18;3.78;;;17.70;95.90;;;;;;5123028;27;20120;-71
2023/04/19 10:59:36;;;;;;;9.48;3.65;;;17.70;96.30;;;;;;5119581;27;20056;-69
2023/04/19 11:02:24;;;;;;;5.68;3.60;;;17.70;95.70;;;;;;5118617;27;20034;-71
2023/04/19 11:04:50;;;;;;;5.30;3.25;;;17.90;96.60;;;;;;5115987;27;20067;-73
2023/04/19 11:07:22;;;;;;;4.20;3.28;;;17.50;95.90;;;;;;5120432;27;20103;-71
2023/04/19 11:09:49;;;;;;;4.18;2.95;;;17.50;96.20;;;;;;5118037;27;20049;-72
2023/04/19 11:12:19;;;;;;;3.67;2.75;;;17.70;95.20;;;;;;5121653;27;20131;-71
2023/04/19 11:14:53;;;;;;;3.00;2.70;;;17.80;93.90;;;;;;5120754;27;20023;-70
2023/04/19 11:17:25;;;;;;;2.95;2.63;;;17.80;91.40;;;;;;5117237;27;20043;-70
2023/04/19 11:20:06;;;;;;;3.67;2.60;;;17.90;92.60;;;;;;5119410;27;20468;-71
2023/04/19 11:22:33;;;;;;;3.60;2.72;;;17.90;92.20;;;;;;5117971;27;20060;-71
2023/04/19 11:25:16;;;;;;;5.15;3.15;;;17.70;92.50;;;;;;5117366;27;20024;-70
2023/04/19 11:27:44;;;;;;;3.78;2.75;;;18.00;92.70;;;;;;5120982;27;20087;-70
2023/04/19 11:30:12;;;;;;;6.00;2.85;;;18.20;93.00;;;;;;5119341;27;20020;-71
2023/04/19 11:32:53;;;;;;;5.30;2.70;;;18.50;91.50;;;;;;5116499;27;20032;-70
2023/04/19 11:35:21;;;;;;;1.92;1.73;;;18.60;90.70;;;;;;5116604;27;20004;-71
2023/04/19 11:37:47;;;;;;;2.05;1.80;;;18.60;89.90;;;;;;5116888;27;20026;-71
2023/04/19 11:40:17;;;;;;;4.35;1.83;;;18.30;89.90;;;;;;5113911;27;20026;-71
2023/04/19 11:42:44;;;;;;;3.03;1.70;;;18.20;86.80;;;;;;5120260;27;20102;-70
2023/04/19 11:45:11;;;;;;;3.33;1.98;;;18.30;89.50;;;;;;5117160;27;20080;-70
2023/04/19 11:47:47;;;;;;;4.82;2.15;;;17.80;83.20;;;;;;5116212;27;20023;-71
2023/04/19 11:50:35;;;;;;;11.80;2.10;;;17.90;88.60;;;;;;5121212;27;20020;-71
2023/04/19 11:53:15;;;;;;;1.77;1.38;;;18.10;89.10;;;;;;5116796;27;20472;-70
2023/04/19 11:55:52;;;;;;;5.78;2.10;;;18.10;82.60;;;;;;5120511;27;20021;-71
2023/04/19 11:58:35;;;;;;;3.33;1.70;;;18.00;84.60;;;;;;5117411;27;20027;-70
2023/04/19 12:01:05;;;;;;;4.40;2.17;;;17.80;84.80;;;;;;5118004;27;20030;-71
2023/04/19 12:03:31;;;;;;;2.75;2.33;;;18.00;84.80;;;;;;5117382;27;20368;-71
2023/04/19 12:05:58;;;;;;;3.20;1.95;;;18.10;84.00;;;;;;5116380;27;20027;-70
2023/04/19 12:08:31;;;;;;;3.63;2.20;;;18.30;87.50;;;;;;5119219;27;20020;-71
2023/04/19 12:10:57;;;;;;;;;;;18.00;85.50;;;;;;5118201;27;20042;-70
2023/04/19 12:13:24;;;;;;;2.53;2.13;;;18.10;89.30;;;;;;5118842;27;19911;-70
2023/04/19 12:15:50;;;;;;;4.03;2.70;;;18.30;91.30;;;;;;5118232;27;20459;-70
2023/04/19 12:18:16;;;;;;;6.47;2.53;;;18.20;85.30;;;;;;5115873;27;20035;-70
2023/04/19 12:20:46;;;;;;;4.40;2.15;;;18.40;87.80;;;;;;5116150;27;20004;-70
2023/04/19 12:23:16;;;;;;;4.78;2.20;;;18.60;85.10;;;;;;5119212;27;20475;-70
2023/04/19 12:25:43;;;;;;;5.60;2.55;;;18.30;82.00;;;;;;5119397;27;20019;-70
2023/04/19 12:28:08;;;;;;;4.38;2.60;;;18.50;89.20;;;;;;5121057;27;20024;-71
2023/04/19 12:30:35;;;;;;;5.05;2.55;;;18.50;85.10;;;;;;5116688;27;20392;-70
2023/04/19 12:33:01;;;;;;;4.93;2.90;;;18.20;86.40;;;;;;5118721;27;20032;-70
2023/04/19 12:35:27;;;;;;;3.65;2.72;;;18.10;85.70;;;;;;5115603;27;20023;-70